sensor_id;sensor_type;location;lat;lon;timestamp;temperature;humidity
5134;DHT22;2585;48.696;10.066;2023-12-20T00:02:02;4.30;86.50
5134;DHT22;2585;48.696;10.066;2023-12-20T00:04:29;4.40;87.80
5134;DHT22;2585;48.696;10.066;2023-12-20T00:06:56;4.50;88.00
5134;DHT22;2585;48.696;10.066;2023-12-20T00:09:23;4.50;88.40
5134;DHT22;2585;48.696;10.066;2023-12-20T00:11:50;4.50;88.70
5134;DHT22;2585;48.696;10.066;2023-12-20T00:14:16;4.50;89.10
5134;DHT22;2585;48.696;10.066;2023-12-20T00:16:43;4.50;89.50
5134;DHT22;2585;48.696;10.066;2023-12-20T00:19:10;4.50;89.70
5134;DHT22;2585;48.696;10.066;2023-12-20T00:21:37;4.50;90.00
5134;DHT22;2585;48.696;10.066;2023-12-20T00:24:04;4.60;90.30
5134;DHT22;2585;48.696;10.066;2023-12-20T00:26:31;4.60;90.50
5134;DHT22;2585;48.696;10.066;2023-12-20T00:28:58;4.60;90.60
5134;DHT22;2585;48.696;10.066;2023-12-20T00:31:25;4.70;90.70
5134;DHT22;2585;48.696;10.066;2023-12-20T00:33:52;4.70;90.90
5134;DHT22;2585;48.696;10.066;2023-12-20T00:36:19;4.70;90.90
5134;DHT22;2585;48.696;10.066;2023-12-20T00:38:46;4.70;90.90
5134;DHT22;2585;48.696;10.066;2023-12-20T00:41:13;4.70;90.90
5134;DHT22;2585;48.696;10.066;2023-12-20T00:43:39;4.70;91.00
5134;DHT22;2585;48.696;10.066;2023-12-20T00:46:06;4.60;91.00
5134;DHT22;2585;48.696;10.066;2023-12-20T00:48:33;4.60;91.20
5134;DHT22;2585;48.696;10.066;2023-12-20T00:51:00;4.60;91.20
5134;DHT22;2585;48.696;10.066;2023-12-20T00:53:26;4.60;91.30
5134;DHT22;2585;48.696;10.066;2023-12-20T00:55:53;4.50;91.40
5134;DHT22;2585;48.696;10.066;2023-12-20T00:58:20;4.60;91.60
5134;DHT22;2585;48.696;10.066;2023-12-20T01:00:47;4.60;91.70
5134;DHT22;2585;48.696;10.066;2023-12-20T01:03:14;4.60;91.90
5134;DHT22;2585;48.696;10.066;2023-12-20T01:05:42;4.50;91.90
5134;DHT22;2585;48.696;10.066;2023-12-20T01:08:08;4.50;92.00
5134;DHT22;2585;48.696;10.066;2023-12-20T01:10:35;4.40;92.10
5134;DHT22;2585;48.696;10.066;2023-12-20T01:13:02;4.40;92.20
5134;DHT22;2585;48.696;10.066;2023-12-20T01:15:29;4.40;92.30
5134;DHT22;2585;48.696;10.066;2023-12-20T01:17:56;4.40;92.40
5134;DHT22;2585;48.696;10.066;2023-12-20T01:20:25;4.40;92.50
5134;DHT22;2585;48.696;10.066;2023-12-20T01:22:52;4.40;92.70
5134;DHT22;2585;48.696;10.066;2023-12-20T01:25:19;4.40;92.80
5134;DHT22;2585;48.696;10.066;2023-12-20T01:27:46;4.40;92.90
5134;DHT22;2585;48.696;10.066;2023-12-20T01:30:14;4.30;93.00
5134;DHT22;2585;48.696;10.066;2023-12-20T01:32:41;4.30;93.10
5134;DHT22;2585;48.696;10.066;2023-12-20T01:35:08;4.30;93.20
5134;DHT22;2585;48.696;10.066;2023-12-20T01:37:35;4.30;93.30
5134;DHT22;2585;48.696;10.066;2023-12-20T01:40:01;4.20;93.30
5134;DHT22;2585;48.696;10.066;2023-12-20T01:42:29;4.20;93.30
5134;DHT22;2585;48.696;10.066;2023-12-20T01:44:56;4.20;93.40
5134;DHT22;2585;48.696;10.066;2023-12-20T01:47:22;4.10;93.40
5134;DHT22;2585;48.696;10.066;2023-12-20T01:49:50;4.20;93.60
5134;DHT22;2585;48.696;10.066;2023-12-20T01:52:17;4.20;93.70
5134;DHT22;2585;48.696;10.066;2023-12-20T01:54:44;4.30;94.00
5134;DHT22;2585;48.696;10.066;2023-12-20T01:57:11;4.40;94.10
5134;DHT22;2585;48.696;10.066;2023-12-20T01:59:39;4.40;94.20
5134;DHT22;2585;48.696;10.066;2023-12-20T02:02:07;4.30;94.30
5134;DHT22;2585;48.696;10.066;2023-12-20T02:04:35;4.30;94.30
5134;DHT22;2585;48.696;10.066;2023-12-20T02:07:02;4.40;94.40
5134;DHT22;2585;48.696;10.066;2023-12-20T02:09:30;4.30;94.50
5134;DHT22;2585;48.696;10.066;2023-12-20T02:11:56;4.30;94.50
5134;DHT22;2585;48.696;10.066;2023-12-20T02:14:23;4.40;94.60
5134;DHT22;2585;48.696;10.066;2023-12-20T02:16:50;4.50;94.70
5134;DHT22;2585;48.696;10.066;2023-12-20T02:19:17;4.50;94.70
5134;DHT22;2585;48.696;10.066;2023-12-20T02:21:46;4.50;94.80
5134;DHT22;2585;48.696;10.066;2023-12-20T02:24:13;4.50;94.80
5134;DHT22;2585;48.696;10.066;2023-12-20T02:26:40;4.60;94.80
5134;DHT22;2585;48.696;10.066;2023-12-20T02:29:11;4.60;94.90
5134;DHT22;2585;48.696;10.066;2023-12-20T02:31:38;4.60;94.90
5134;DHT22;2585;48.696;10.066;2023-12-20T02:34:05;4.50;94.80
5134;DHT22;2585;48.696;10.066;2023-12-20T02:36:32;4.50;94.80
5134;DHT22;2585;48.696;10.066;2023-12-20T02:38:59;4.50;94.80
5134;DHT22;2585;48.696;10.066;2023-12-20T02:41:26;4.50;94.80
5134;DHT22;2585;48.696;10.066;2023-12-20T02:43:52;4.40;94.80
5134;DHT22;2585;48.696;10.066;2023-12-20T02:46:19;4.40;94.70
5134;DHT22;2585;48.696;10.066;2023-12-20T02:48:46;4.40;94.70
5134;DHT22;2585;48.696;10.066;2023-12-20T02:51:14;4.30;94.70
5134;DHT22;2585;48.696;10.066;2023-12-20T02:53:41;4.30;94.70
5134;DHT22;2585;48.696;10.066;2023-12-20T02:56:07;4.30;94.70
5134;DHT22;2585;48.696;10.066;2023-12-20T02:58:34;4.20;94.60
5134;DHT22;2585;48.696;10.066;2023-12-20T03:01:01;4.20;94.70
5134;DHT22;2585;48.696;10.066;2023-12-20T03:03:28;4.20;94.70
5134;DHT22;2585;48.696;10.066;2023-12-20T03:05:55;4.20;94.70
5134;DHT22;2585;48.696;10.066;2023-12-20T03:08:22;4.10;94.60
5134;DHT22;2585;48.696;10.066;2023-12-20T03:10:49;4.20;94.70
5134;DHT22;2585;48.696;10.066;2023-12-20T03:13:16;4.20;94.70
5134;DHT22;2585;48.696;10.066;2023-12-20T03:15:43;4.20;94.70
5134;DHT22;2585;48.696;10.066;2023-12-20T03:18:10;4.20;94.80
5134;DHT22;2585;48.696;10.066;2023-12-20T03:20:37;4.20;94.80
5134;DHT22;2585;48.696;10.066;2023-12-20T03:23:04;4.20;94.80
5134;DHT22;2585;48.696;10.066;2023-12-20T03:25:31;4.20;94.80
5134;DHT22;2585;48.696;10.066;2023-12-20T03:27:57;4.20;94.90
5134;DHT22;2585;48.696;10.066;2023-12-20T03:30:24;4.20;94.90
5134;DHT22;2585;48.696;10.066;2023-12-20T03:32:51;4.20;94.90
5134;DHT22;2585;48.696;10.066;2023-12-20T03:35:18;4.20;94.90
5134;DHT22;2585;48.696;10.066;2023-12-20T03:37:45;4.20;94.90
5134;DHT22;2585;48.696;10.066;2023-12-20T03:40:12;4.20;94.90
5134;DHT22;2585;48.696;10.066;2023-12-20T03:42:39;4.20;94.90
5134;DHT22;2585;48.696;10.066;2023-12-20T03:45:06;4.30;95.00
5134;DHT22;2585;48.696;10.066;2023-12-20T03:47:33;4.30;95.00
5134;DHT22;2585;48.696;10.066;2023-12-20T03:50:00;4.20;95.00
5134;DHT22;2585;48.696;10.066;2023-12-20T03:52:27;4.20;95.00
5134;DHT22;2585;48.696;10.066;2023-12-20T03:54:54;4.20;95.00
5134;DHT22;2585;48.696;10.066;2023-12-20T03:57:20;4.20;95.00
5134;DHT22;2585;48.696;10.066;2023-12-20T03:59:47;4.20;95.00
5134;DHT22;2585;48.696;10.066;2023-12-20T04:02:14;4.30;95.00
5134;DHT22;2585;48.696;10.066;2023-12-20T04:04:41;4.20;95.00
5134;DHT22;2585;48.696;10.066;2023-12-20T04:07:08;4.20;95.00
5134;DHT22;2585;48.696;10.066;2023-12-20T04:09:35;4.20;95.00
5134;DHT22;2585;48.696;10.066;2023-12-20T04:12:02;4.10;95.00
5134;DHT22;2585;48.696;10.066;2023-12-20T04:14:30;4.10;95.00
5134;DHT22;2585;48.696;10.066;2023-12-20T04:16:56;4.20;95.00
5134;DHT22;2585;48.696;10.066;2023-12-20T04:19:23;4.10;95.00
5134;DHT22;2585;48.696;10.066;2023-12-20T04:21:50;4.10;95.00
5134;DHT22;2585;48.696;10.066;2023-12-20T04:24:17;4.10;95.00
5134;DHT22;2585;48.696;10.066;2023-12-20T04:26:44;4.00;95.00
5134;DHT22;2585;48.696;10.066;2023-12-20T04:29:11;4.00;95.00
5134;DHT22;2585;48.696;10.066;2023-12-20T04:31:37;4.00;95.00
5134;DHT22;2585;48.696;10.066;2023-12-20T04:34:04;4.00;95.00
5134;DHT22;2585;48.696;10.066;2023-12-20T04:36:31;4.00;95.00
5134;DHT22;2585;48.696;10.066;2023-12-20T04:38:58;4.00;95.00
5134;DHT22;2585;48.696;10.066;2023-12-20T04:41:26;3.90;95.00
5134;DHT22;2585;48.696;10.066;2023-12-20T04:43:54;3.90;95.00
5134;DHT22;2585;48.696;10.066;2023-12-20T04:46:21;3.90;95.00
5134;DHT22;2585;48.696;10.066;2023-12-20T04:48:48;3.90;95.00
5134;DHT22;2585;48.696;10.066;2023-12-20T04:51:15;3.80;94.90
5134;DHT22;2585;48.696;10.066;2023-12-20T04:53:42;3.80;94.90
5134;DHT22;2585;48.696;10.066;2023-12-20T04:56:08;3.80;94.90
5134;DHT22;2585;48.696;10.066;2023-12-20T04:58:35;3.80;94.90
5134;DHT22;2585;48.696;10.066;2023-12-20T05:01:03;3.80;95.00
5134;DHT22;2585;48.696;10.066;2023-12-20T05:03:31;3.70;94.90
5134;DHT22;2585;48.696;10.066;2023-12-20T05:05:57;3.70;94.90
5134;DHT22;2585;48.696;10.066;2023-12-20T05:08:24;3.70;94.90
5134;DHT22;2585;48.696;10.066;2023-12-20T05:10:54;3.70;94.90
5134;DHT22;2585;48.696;10.066;2023-12-20T05:13:21;3.70;94.90
5134;DHT22;2585;48.696;10.066;2023-12-20T05:15:52;3.70;95.00
5134;DHT22;2585;48.696;10.066;2023-12-20T05:18:20;3.60;94.90
5134;DHT22;2585;48.696;10.066;2023-12-20T05:20:47;3.60;94.90
5134;DHT22;2585;48.696;10.066;2023-12-20T05:23:14;3.60;94.90
5134;DHT22;2585;48.696;10.066;2023-12-20T05:25:40;3.60;94.90
5134;DHT22;2585;48.696;10.066;2023-12-20T05:28:07;3.60;94.90
5134;DHT22;2585;48.696;10.066;2023-12-20T05:30:34;3.60;94.90
5134;DHT22;2585;48.696;10.066;2023-12-20T05:33:01;3.60;94.90
5134;DHT22;2585;48.696;10.066;2023-12-20T05:35:28;3.60;95.00
5134;DHT22;2585;48.696;10.066;2023-12-20T05:37:55;3.60;95.00
5134;DHT22;2585;48.696;10.066;2023-12-20T05:40:21;3.60;95.00
5134;DHT22;2585;48.696;10.066;2023-12-20T05:42:48;3.60;95.00
5134;DHT22;2585;48.696;10.066;2023-12-20T05:45:15;3.60;95.00
5134;DHT22;2585;48.696;10.066;2023-12-20T05:47:42;3.60;95.00
5134;DHT22;2585;48.696;10.066;2023-12-20T05:50:09;3.50;95.00
5134;DHT22;2585;48.696;10.066;2023-12-20T05:52:36;3.60;95.00
5134;DHT22;2585;48.696;10.066;2023-12-20T05:55:03;3.60;95.00
5134;DHT22;2585;48.696;10.066;2023-12-20T05:57:30;3.60;95.00
5134;DHT22;2585;48.696;10.066;2023-12-20T05:59:57;3.50;95.00
5134;DHT22;2585;48.696;10.066;2023-12-20T06:02:24;3.50;95.00
5134;DHT22;2585;48.696;10.066;2023-12-20T06:04:51;3.50;95.00
5134;DHT22;2585;48.696;10.066;2023-12-20T06:07:18;3.60;95.00
5134;DHT22;2585;48.696;10.066;2023-12-20T06:09:45;3.50;95.00
5134;DHT22;2585;48.696;10.066;2023-12-20T06:12:12;3.60;95.00
5134;DHT22;2585;48.696;10.066;2023-12-20T06:14:38;3.60;95.00
5134;DHT22;2585;48.696;10.066;2023-12-20T06:17:05;3.60;95.00
5134;DHT22;2585;48.696;10.066;2023-12-20T06:19:32;3.60;95.00
5134;DHT22;2585;48.696;10.066;2023-12-20T06:21:59;3.60;95.00
5134;DHT22;2585;48.696;10.066;2023-12-20T06:24:26;3.60;95.00
5134;DHT22;2585;48.696;10.066;2023-12-20T06:26:55;3.60;95.00
5134;DHT22;2585;48.696;10.066;2023-12-20T06:29:22;3.60;95.00
5134;DHT22;2585;48.696;10.066;2023-12-20T06:31:49;3.60;95.00
5134;DHT22;2585;48.696;10.066;2023-12-20T06:34:16;3.60;95.00
5134;DHT22;2585;48.696;10.066;2023-12-20T06:36:43;3.60;95.10
5134;DHT22;2585;48.696;10.066;2023-12-20T06:39:09;3.60;95.10
5134;DHT22;2585;48.696;10.066;2023-12-20T06:41:39;3.60;95.10
5134;DHT22;2585;48.696;10.066;2023-12-20T06:44:06;3.60;95.10
5134;DHT22;2585;48.696;10.066;2023-12-20T06:46:32;3.50;95.00
5134;DHT22;2585;48.696;10.066;2023-12-20T06:48:59;3.60;95.10
5134;DHT22;2585;48.696;10.066;2023-12-20T06:51:26;3.60;95.10
5134;DHT22;2585;48.696;10.066;2023-12-20T06:53:53;3.60;95.10
5134;DHT22;2585;48.696;10.066;2023-12-20T06:56:20;3.60;95.10
5134;DHT22;2585;48.696;10.066;2023-12-20T06:58:47;3.60;95.10
5134;DHT22;2585;48.696;10.066;2023-12-20T07:01:15;3.60;95.10
5134;DHT22;2585;48.696;10.066;2023-12-20T07:03:42;3.60;95.10
5134;DHT22;2585;48.696;10.066;2023-12-20T07:06:09;3.60;95.10
5134;DHT22;2585;48.696;10.066;2023-12-20T07:08:36;3.60;95.10
5134;DHT22;2585;48.696;10.066;2023-12-20T07:11:03;3.50;95.10
5134;DHT22;2585;48.696;10.066;2023-12-20T07:13:30;3.50;95.10
5134;DHT22;2585;48.696;10.066;2023-12-20T07:15:57;3.50;95.10
5134;DHT22;2585;48.696;10.066;2023-12-20T07:18:24;3.50;95.10
5134;DHT22;2585;48.696;10.066;2023-12-20T07:20:51;3.50;95.10
5134;DHT22;2585;48.696;10.066;2023-12-20T07:23:18;3.50;95.10
5134;DHT22;2585;48.696;10.066;2023-12-20T07:25:46;3.50;95.10
5134;DHT22;2585;48.696;10.066;2023-12-20T07:28:13;3.50;95.10
5134;DHT22;2585;48.696;10.066;2023-12-20T07:30:40;3.50;95.10
5134;DHT22;2585;48.696;10.066;2023-12-20T07:33:07;3.50;95.10
5134;DHT22;2585;48.696;10.066;2023-12-20T07:35:36;3.60;95.10
5134;DHT22;2585;48.696;10.066;2023-12-20T07:38:03;3.50;95.10
5134;DHT22;2585;48.696;10.066;2023-12-20T07:40:30;3.60;95.10
5134;DHT22;2585;48.696;10.066;2023-12-20T07:42:57;3.60;95.10
5134;DHT22;2585;48.696;10.066;2023-12-20T07:45:24;3.60;95.10
5134;DHT22;2585;48.696;10.066;2023-12-20T07:47:51;3.60;95.10
5134;DHT22;2585;48.696;10.066;2023-12-20T07:50:18;3.60;95.10
5134;DHT22;2585;48.696;10.066;2023-12-20T07:52:45;3.60;95.10
5134;DHT22;2585;48.696;10.066;2023-12-20T07:55:12;3.70;95.20
5134;DHT22;2585;48.696;10.066;2023-12-20T07:57:39;3.70;95.20
5134;DHT22;2585;48.696;10.066;2023-12-20T08:00:06;3.70;95.20
5134;DHT22;2585;48.696;10.066;2023-12-20T08:02:33;3.70;95.20
5134;DHT22;2585;48.696;10.066;2023-12-20T08:05:00;3.70;95.20
5134;DHT22;2585;48.696;10.066;2023-12-20T08:07:27;3.70;95.20
5134;DHT22;2585;48.696;10.066;2023-12-20T08:09:54;3.70;95.20
5134;DHT22;2585;48.696;10.066;2023-12-20T08:12:23;3.80;95.20
5134;DHT22;2585;48.696;10.066;2023-12-20T08:14:49;3.80;95.20
5134;DHT22;2585;48.696;10.066;2023-12-20T08:17:16;3.70;95.20
5134;DHT22;2585;48.696;10.066;2023-12-20T08:19:45;3.70;95.20
5134;DHT22;2585;48.696;10.066;2023-12-20T08:22:12;3.80;95.20
5134;DHT22;2585;48.696;10.066;2023-12-20T08:24:39;3.70;95.20
5134;DHT22;2585;48.696;10.066;2023-12-20T08:27:05;3.80;95.20
5134;DHT22;2585;48.696;10.066;2023-12-20T08:29:32;3.80;95.20
5134;DHT22;2585;48.696;10.066;2023-12-20T08:31:59;3.90;95.20
5134;DHT22;2585;48.696;10.066;2023-12-20T08:34:26;3.90;95.30
5134;DHT22;2585;48.696;10.066;2023-12-20T08:36:54;4.00;95.30
5134;DHT22;2585;48.696;10.066;2023-12-20T08:39:20;4.00;95.30
5134;DHT22;2585;48.696;10.066;2023-12-20T08:41:47;4.00;95.30
5134;DHT22;2585;48.696;10.066;2023-12-20T08:44:14;4.00;95.30
5134;DHT22;2585;48.696;10.066;2023-12-20T08:46:41;3.90;95.30
5134;DHT22;2585;48.696;10.066;2023-12-20T08:49:08;4.00;95.30
5134;DHT22;2585;48.696;10.066;2023-12-20T08:51:36;4.00;95.30
5134;DHT22;2585;48.696;10.066;2023-12-20T08:54:06;4.00;95.30
5134;DHT22;2585;48.696;10.066;2023-12-20T08:56:34;4.00;95.30
5134;DHT22;2585;48.696;10.066;2023-12-20T08:59:01;4.00;95.30
5134;DHT22;2585;48.696;10.066;2023-12-20T09:01:28;4.10;95.30
5134;DHT22;2585;48.696;10.066;2023-12-20T09:03:55;4.00;95.30
5134;DHT22;2585;48.696;10.066;2023-12-20T09:06:22;4.00;95.30
5134;DHT22;2585;48.696;10.066;2023-12-20T09:08:49;4.00;95.30
5134;DHT22;2585;48.696;10.066;2023-12-20T09:11:15;4.00;95.30
5134;DHT22;2585;48.696;10.066;2023-12-20T09:13:44;3.90;95.20
5134;DHT22;2585;48.696;10.066;2023-12-20T09:16:11;3.90;95.20
5134;DHT22;2585;48.696;10.066;2023-12-20T09:18:39;3.90;95.20
5134;DHT22;2585;48.696;10.066;2023-12-20T09:21:06;3.90;95.20
5134;DHT22;2585;48.696;10.066;2023-12-20T09:23:33;3.90;95.20
5134;DHT22;2585;48.696;10.066;2023-12-20T09:26:00;4.00;95.20
5134;DHT22;2585;48.696;10.066;2023-12-20T09:28:27;4.00;95.20
5134;DHT22;2585;48.696;10.066;2023-12-20T09:30:54;4.00;95.20
5134;DHT22;2585;48.696;10.066;2023-12-20T09:33:20;4.00;95.20
5134;DHT22;2585;48.696;10.066;2023-12-20T09:35:47;4.00;95.20
5134;DHT22;2585;48.696;10.066;2023-12-20T09:38:15;4.10;95.20
5134;DHT22;2585;48.696;10.066;2023-12-20T09:40:44;4.20;95.30
5134;DHT22;2585;48.696;10.066;2023-12-20T09:43:14;4.30;95.30
5134;DHT22;2585;48.696;10.066;2023-12-20T09:45:46;4.30;95.30
5134;DHT22;2585;48.696;10.066;2023-12-20T09:48:13;4.30;95.30
5134;DHT22;2585;48.696;10.066;2023-12-20T09:50:44;4.20;95.20
5134;DHT22;2585;48.696;10.066;2023-12-20T09:53:18;4.30;95.20
5134;DHT22;2585;48.696;10.066;2023-12-20T09:55:46;4.20;95.20
5134;DHT22;2585;48.696;10.066;2023-12-20T09:58:12;4.20;95.20
5134;DHT22;2585;48.696;10.066;2023-12-20T10:00:39;4.10;95.20
5134;DHT22;2585;48.696;10.066;2023-12-20T10:03:06;4.10;95.20
5134;DHT22;2585;48.696;10.066;2023-12-20T10:05:34;4.20;95.20
5134;DHT22;2585;48.696;10.066;2023-12-20T10:08:02;4.10;95.10
5134;DHT22;2585;48.696;10.066;2023-12-20T10:10:30;4.20;95.20
5134;DHT22;2585;48.696;10.066;2023-12-20T10:13:12;4.30;95.20
5134;DHT22;2585;48.696;10.066;2023-12-20T10:15:40;4.50;95.20
5134;DHT22;2585;48.696;10.066;2023-12-20T10:18:08;4.30;95.10
5134;DHT22;2585;48.696;10.066;2023-12-20T10:20:35;4.40;95.10
5134;DHT22;2585;48.696;10.066;2023-12-20T10:23:02;4.40;95.10
5134;DHT22;2585;48.696;10.066;2023-12-20T10:25:29;4.50;95.10
5134;DHT22;2585;48.696;10.066;2023-12-20T10:28:12;4.20;95.00
5134;DHT22;2585;48.696;10.066;2023-12-20T10:30:41;4.30;95.00
5134;DHT22;2585;48.696;10.066;2023-12-20T10:33:09;4.20;94.90
5134;DHT22;2585;48.696;10.066;2023-12-20T10:35:38;4.20;94.90
5134;DHT22;2585;48.696;10.066;2023-12-20T10:38:10;4.60;95.00
5134;DHT22;2585;48.696;10.066;2023-12-20T10:40:38;4.70;95.00
5134;DHT22;2585;48.696;10.066;2023-12-20T10:43:05;4.90;95.10
5134;DHT22;2585;48.696;10.066;2023-12-20T10:45:33;5.00;95.00
5134;DHT22;2585;48.696;10.066;2023-12-20T10:48:01;4.80;94.90
5134;DHT22;2585;48.696;10.066;2023-12-20T10:50:30;5.10;95.00
5134;DHT22;2585;48.696;10.066;2023-12-20T10:52:58;4.90;94.90
5134;DHT22;2585;48.696;10.066;2023-12-20T10:55:26;4.70;94.80
5134;DHT22;2585;48.696;10.066;2023-12-20T10:58:01;4.50;94.60
5134;DHT22;2585;48.696;10.066;2023-12-20T11:00:29;4.50;94.60
5134;DHT22;2585;48.696;10.066;2023-12-20T11:03:00;4.50;94.60
5134;DHT22;2585;48.696;10.066;2023-12-20T11:05:49;4.40;94.60
5134;DHT22;2585;48.696;10.066;2023-12-20T11:11:12;4.40;94.60
5134;DHT22;2585;48.696;10.066;2023-12-20T11:13:48;4.30;94.50
5134;DHT22;2585;48.696;10.066;2023-12-20T11:16:15;4.10;94.40
5134;DHT22;2585;48.696;10.066;2023-12-20T11:18:45;4.10;94.40
5134;DHT22;2585;48.696;10.066;2023-12-20T11:21:12;4.10;94.30
5134;DHT22;2585;48.696;10.066;2023-12-20T11:23:42;4.00;94.20
5134;DHT22;2585;48.696;10.066;2023-12-20T11:26:09;4.00;94.30
5134;DHT22;2585;48.696;10.066;2023-12-20T11:28:36;4.10;94.30
5134;DHT22;2585;48.696;10.066;2023-12-20T11:31:03;4.10;94.30
5134;DHT22;2585;48.696;10.066;2023-12-20T11:33:40;4.00;94.20
5134;DHT22;2585;48.696;10.066;2023-12-20T11:36:14;4.10;94.20
5134;DHT22;2585;48.696;10.066;2023-12-20T11:38:56;4.20;94.20
5134;DHT22;2585;48.696;10.066;2023-12-20T11:41:24;4.30;94.20
5134;DHT22;2585;48.696;10.066;2023-12-20T11:43:55;4.40;94.20
5134;DHT22;2585;48.696;10.066;2023-12-20T11:46:23;4.30;94.10
5134;DHT22;2585;48.696;10.066;2023-12-20T11:48:50;4.30;94.20
5134;DHT22;2585;48.696;10.066;2023-12-20T11:51:18;4.20;94.10
5134;DHT22;2585;48.696;10.066;2023-12-20T11:53:44;4.20;94.10
5134;DHT22;2585;48.696;10.066;2023-12-20T11:56:11;4.20;94.10
5134;DHT22;2585;48.696;10.066;2023-12-20T11:58:39;4.20;93.90
5134;DHT22;2585;48.696;10.066;2023-12-20T12:01:06;4.20;93.90
5134;DHT22;2585;48.696;10.066;2023-12-20T12:03:35;4.30;93.80
5134;DHT22;2585;48.696;10.066;2023-12-20T12:06:02;4.50;93.80
5134;DHT22;2585;48.696;10.066;2023-12-20T12:08:32;4.80;93.60
5134;DHT22;2585;48.696;10.066;2023-12-20T12:10:58;5.20;93.40
5134;DHT22;2585;48.696;10.066;2023-12-20T12:13:25;5.60;93.00
5134;DHT22;2585;48.696;10.066;2023-12-20T12:15:55;6.30;86.10
5134;DHT22;2585;48.696;10.066;2023-12-20T12:18:22;6.60;84.60
5134;DHT22;2585;48.696;10.066;2023-12-20T12:20:49;6.40;81.70
5134;DHT22;2585;48.696;10.066;2023-12-20T12:23:23;6.00;88.60
5134;DHT22;2585;48.696;10.066;2023-12-20T12:25:50;5.60;89.00
5134;DHT22;2585;48.696;10.066;2023-12-20T12:28:17;5.30;87.90
5134;DHT22;2585;48.696;10.066;2023-12-20T12:30:57;5.00;87.00
5134;DHT22;2585;48.696;10.066;2023-12-20T12:33:27;4.80;88.20
5134;DHT22;2585;48.696;10.066;2023-12-20T12:35:54;4.50;88.70
5134;DHT22;2585;48.696;10.066;2023-12-20T12:38:22;4.40;88.70
5134;DHT22;2585;48.696;10.066;2023-12-20T12:40:50;4.40;89.20
5134;DHT22;2585;48.696;10.066;2023-12-20T12:43:19;4.30;87.00
5134;DHT22;2585;48.696;10.066;2023-12-20T12:45:46;4.30;88.10
5134;DHT22;2585;48.696;10.066;2023-12-20T12:48:14;4.20;87.40
5134;DHT22;2585;48.696;10.066;2023-12-20T12:50:41;4.10;87.70
5134;DHT22;2585;48.696;10.066;2023-12-20T12:53:07;4.00;86.20
5134;DHT22;2585;48.696;10.066;2023-12-20T12:55:35;3.90;86.50
5134;DHT22;2585;48.696;10.066;2023-12-20T12:58:02;3.80;87.50
5134;DHT22;2585;48.696;10.066;2023-12-20T13:00:29;3.80;88.20
5134;DHT22;2585;48.696;10.066;2023-12-20T13:02:56;3.80;87.70
5134;DHT22;2585;48.696;10.066;2023-12-20T13:05:23;3.80;87.10
5134;DHT22;2585;48.696;10.066;2023-12-20T13:07:50;3.70;86.50
5134;DHT22;2585;48.696;10.066;2023-12-20T13:10:17;3.70;86.80
5134;DHT22;2585;48.696;10.066;2023-12-20T13:12:44;3.60;86.80
5134;DHT22;2585;48.696;10.066;2023-12-20T13:15:11;3.60;86.90
5134;DHT22;2585;48.696;10.066;2023-12-20T13:17:38;3.60;87.50
5134;DHT22;2585;48.696;10.066;2023-12-20T13:20:05;3.50;87.50
5134;DHT22;2585;48.696;10.066;2023-12-20T13:22:33;3.50;87.20
5134;DHT22;2585;48.696;10.066;2023-12-20T13:25:00;3.50;84.50
5134;DHT22;2585;48.696;10.066;2023-12-20T13:27:27;3.50;83.70
5134;DHT22;2585;48.696;10.066;2023-12-20T13:29:54;3.50;83.80
5134;DHT22;2585;48.696;10.066;2023-12-20T13:32:21;3.60;84.90
5134;DHT22;2585;48.696;10.066;2023-12-20T13:34:48;3.50;78.50
5134;DHT22;2585;48.696;10.066;2023-12-20T13:37:15;3.60;78.00
5134;DHT22;2585;48.696;10.066;2023-12-20T13:39:42;3.70;77.20
5134;DHT22;2585;48.696;10.066;2023-12-20T13:42:09;3.60;76.50
5134;DHT22;2585;48.696;10.066;2023-12-20T13:44:35;3.70;76.30
5134;DHT22;2585;48.696;10.066;2023-12-20T13:47:02;3.60;73.80
5134;DHT22;2585;48.696;10.066;2023-12-20T13:49:30;3.70;74.90
5134;DHT22;2585;48.696;10.066;2023-12-20T13:51:57;3.60;73.20
5134;DHT22;2585;48.696;10.066;2023-12-20T13:54:25;3.70;73.10
5134;DHT22;2585;48.696;10.066;2023-12-20T13:56:51;3.70;70.00
5134;DHT22;2585;48.696;10.066;2023-12-20T13:59:37;3.60;65.40
5134;DHT22;2585;48.696;10.066;2023-12-20T14:02:04;3.70;67.20
5134;DHT22;2585;48.696;10.066;2023-12-20T14:04:32;3.60;64.30
5134;DHT22;2585;48.696;10.066;2023-12-20T14:07:09;3.60;61.40
5134;DHT22;2585;48.696;10.066;2023-12-20T14:09:38;3.60;42.90
5134;DHT22;2585;48.696;10.066;2023-12-20T14:12:05;3.50;60.30
5134;DHT22;2585;48.696;10.066;2023-12-20T14:14:32;3.50;57.50
5134;DHT22;2585;48.696;10.066;2023-12-20T14:16:59;3.30;64.70
5134;DHT22;2585;48.696;10.066;2023-12-20T14:19:26;3.30;69.20
5134;DHT22;2585;48.696;10.066;2023-12-20T14:21:53;3.30;70.00
5134;DHT22;2585;48.696;10.066;2023-12-20T14:24:20;3.30;67.80
5134;DHT22;2585;48.696;10.066;2023-12-20T14:26:46;3.20;69.30
5134;DHT22;2585;48.696;10.066;2023-12-20T14:29:13;3.20;71.60
5134;DHT22;2585;48.696;10.066;2023-12-20T14:31:40;3.10;72.90
5134;DHT22;2585;48.696;10.066;2023-12-20T14:34:07;3.10;75.20
5134;DHT22;2585;48.696;10.066;2023-12-20T14:36:35;3.10;74.90
5134;DHT22;2585;48.696;10.066;2023-12-20T14:39:02;3.20;74.60
5134;DHT22;2585;48.696;10.066;2023-12-20T14:41:30;3.20;73.80
5134;DHT22;2585;48.696;10.066;2023-12-20T14:43:58;3.10;71.10
5134;DHT22;2585;48.696;10.066;2023-12-20T14:46:27;3.20;70.10
5134;DHT22;2585;48.696;10.066;2023-12-20T14:48:55;3.20;65.50
5134;DHT22;2585;48.696;10.066;2023-12-20T14:51:22;3.20;62.30
5134;DHT22;2585;48.696;10.066;2023-12-20T14:53:49;3.20;63.30
5134;DHT22;2585;48.696;10.066;2023-12-20T14:56:16;3.10;63.70
5134;DHT22;2585;48.696;10.066;2023-12-20T14:58:43;3.10;66.20
5134;DHT22;2585;48.696;10.066;2023-12-20T15:01:10;3.10;65.30
5134;DHT22;2585;48.696;10.066;2023-12-20T15:03:37;3.00;64.50
5134;DHT22;2585;48.696;10.066;2023-12-20T15:06:05;3.00;63.20
5134;DHT22;2585;48.696;10.066;2023-12-20T15:08:33;2.90;64.40
5134;DHT22;2585;48.696;10.066;2023-12-20T15:10:59;3.00;61.60
5134;DHT22;2585;48.696;10.066;2023-12-20T15:13:27;2.90;62.20
5134;DHT22;2585;48.696;10.066;2023-12-20T15:15:54;2.90;62.50
5134;DHT22;2585;48.696;10.066;2023-12-20T15:18:21;2.90;63.60
5134;DHT22;2585;48.696;10.066;2023-12-20T15:20:48;2.80;64.20
5134;DHT22;2585;48.696;10.066;2023-12-20T15:23:14;2.80;66.20
5134;DHT22;2585;48.696;10.066;2023-12-20T15:25:41;2.80;68.40
5134;DHT22;2585;48.696;10.066;2023-12-20T15:28:09;2.80;69.50
5134;DHT22;2585;48.696;10.066;2023-12-20T15:30:36;2.80;69.20
5134;DHT22;2585;48.696;10.066;2023-12-20T15:33:03;2.80;69.80
5134;DHT22;2585;48.696;10.066;2023-12-20T15:35:33;2.90;69.80
5134;DHT22;2585;48.696;10.066;2023-12-20T15:38:00;2.90;68.90
5134;DHT22;2585;48.696;10.066;2023-12-20T15:40:28;2.90;67.10
5134;DHT22;2585;48.696;10.066;2023-12-20T15:42:55;2.90;67.60
5134;DHT22;2585;48.696;10.066;2023-12-20T15:45:22;2.90;68.80
5134;DHT22;2585;48.696;10.066;2023-12-20T15:47:49;2.90;69.20
5134;DHT22;2585;48.696;10.066;2023-12-20T15:50:16;3.00;69.50
5134;DHT22;2585;48.696;10.066;2023-12-20T15:52:44;3.00;69.20
5134;DHT22;2585;48.696;10.066;2023-12-20T15:55:11;3.00;70.80
5134;DHT22;2585;48.696;10.066;2023-12-20T15:57:37;3.00;69.50
5134;DHT22;2585;48.696;10.066;2023-12-20T16:00:19;3.00;71.50
5134;DHT22;2585;48.696;10.066;2023-12-20T16:02:46;3.00;72.00
5134;DHT22;2585;48.696;10.066;2023-12-20T16:05:12;3.00;72.00
5134;DHT22;2585;48.696;10.066;2023-12-20T16:07:40;3.00;73.70